sensor_id;sensor_type;location;lat;lon;timestamp;pressure;altitude;pressure_sealevel;temperature;humidity
47753;BME280;2038;51.728;6.674;2022-08-25T00:02:03;101044.25;;;23.97;70.49
47753;BME280;2038;51.728;6.674;2022-08-25T00:04:34;101048.53;;;23.93;70.65
47753;BME280;2038;51.728;6.674;2022-08-25T00:07:02;101045.94;;;23.93;70.64
47753;BME280;2038;51.728;6.674;2022-08-25T00:09:29;101055.50;;;23.94;70.66
47753;BME280;2038;51.728;6.674;2022-08-25T00:11:57;101045.91;;;23.92;70.69
47753;BME280;2038;51.728;6.674;2022-08-25T00:14:30;101046.78;;;23.91;70.50
47753;BME280;2038;51.728;6.674;2022-08-25T00:17:00;101044.13;;;23.89;70.35
47753;BME280;2038;51.728;6.674;2022-08-25T00:19:31;101046.81;;;23.94;70.32
47753;BME280;2038;51.728;6.674;2022-08-25T00:21:59;101042.41;;;23.90;70.43
47753;BME280;2038;51.728;6.674;2022-08-25T00:24:27;101046.63;;;23.82;70.37
47753;BME280;2038;51.728;6.674;2022-08-25T00:26:56;101042.22;;;23.77;70.66
47753;BME280;2038;51.728;6.674;2022-08-25T00:29:26;101043.06;;;23.76;70.53
47753;BME280;2038;51.728;6.674;2022-08-25T00:31:54;101041.25;;;23.71;70.67
47753;BME280;2038;51.728;6.674;2022-08-25T00:34:27;101047.25;;;23.67;70.74
47753;BME280;2038;51.728;6.674;2022-08-25T00:36:56;101048.09;;;23.66;70.64
47753;BME280;2038;51.728;6.674;2022-08-25T00:39:23;101054.97;;;23.62;70.86
47753;BME280;2038;51.728;6.674;2022-08-25T00:41:52;101042.69;;;23.54;70.92
47753;BME280;2038;51.728;6.674;2022-08-25T00:44:22;101045.16;;;23.48;71.43
47753;BME280;2038;51.728;6.674;2022-08-25T00:46:53;101045.97;;;23.45;71.32
47753;BME280;2038;51.728;6.674;2022-08-25T00:52:18;101055.25;;;23.32;72.34
47753;BME280;2038;51.728;6.674;2022-08-25T00:54:54;101055.06;;;23.23;72.53
47753;BME280;2038;51.728;6.674;2022-08-25T00:57:28;101059.28;;;23.17;72.86
47753;BME280;2038;51.728;6.674;2022-08-25T00:59:59;101054.69;;;23.04;73.25
47753;BME280;2038;51.728;6.674;2022-08-25T01:02:26;101058.06;;;22.98;73.25
47753;BME280;2038;51.728;6.674;2022-08-25T01:04:52;101046.78;;;22.99;73.36
47753;BME280;2038;51.728;6.674;2022-08-25T01:07:19;101061.56;;;22.99;73.56
47753;BME280;2038;51.728;6.674;2022-08-25T01:09:49;101057.97;;;22.94;73.75
47753;BME280;2038;51.728;6.674;2022-08-25T01:12:18;101067.44;;;22.92;73.77
47753;BME280;2038;51.728;6.674;2022-08-25T01:14:45;101064.78;;;22.89;73.84
47753;BME280;2038;51.728;6.674;2022-08-25T01:17:13;101063.13;;;22.91;73.31
47753;BME280;2038;51.728;6.674;2022-08-25T01:19:39;101063.94;;;22.90;73.36
47753;BME280;2038;51.728;6.674;2022-08-25T01:22:06;101067.44;;;22.90;73.49
47753;BME280;2038;51.728;6.674;2022-08-25T01:24:49;101065.97;;;22.64;74.18
47753;BME280;2038;51.728;6.674;2022-08-25T01:27:24;101064.19;;;22.61;74.43
47753;BME280;2038;51.728;6.674;2022-08-25T01:29:50;101054.63;;;22.60;74.21
47753;BME280;2038;51.728;6.674;2022-08-25T01:32:17;101058.09;;;22.61;74.34
47753;BME280;2038;51.728;6.674;2022-08-25T01:34:44;101061.69;;;22.67;74.11
47753;BME280;2038;51.728;6.674;2022-08-25T01:37:13;101060.22;;;22.77;73.58
47753;BME280;2038;51.728;6.674;2022-08-25T01:39:41;101059.28;;;22.73;73.86
47753;BME280;2038;51.728;6.674;2022-08-25T01:44:43;101063.53;;;22.70;73.88
47753;BME280;2038;51.728;6.674;2022-08-25T01:47:11;101064.38;;;22.69;74.14
47753;BME280;2038;51.728;6.674;2022-08-25T01:49:38;101067.69;;;22.63;74.32
47753;BME280;2038;51.728;6.674;2022-08-25T01:52:20;101058.00;;;22.56;74.33
47753;BME280;2038;51.728;6.674;2022-08-25T01:54:50;101057.94;;;22.53;74.52
47753;BME280;2038;51.728;6.674;2022-08-25T01:57:17;101065.78;;;22.55;74.36
47753;BME280;2038;51.728;6.674;2022-08-25T01:59:43;101066.50;;;22.49;74.97
47753;BME280;2038;51.728;6.674;2022-08-25T02:02:10;101066.47;;;22.48;74.91
47753;BME280;2038;51.728;6.674;2022-08-25T02:04:36;101061.31;;;22.49;75.09
47753;BME280;2038;51.728;6.674;2022-08-25T02:07:05;101060.44;;;22.49;75.03
47753;BME280;2038;51.728;6.674;2022-08-25T02:09:34;101071.72;;;22.49;75.13
47753;BME280;2038;51.728;6.674;2022-08-25T02:12:02;101067.34;;;22.47;75.16
47753;BME280;2038;51.728;6.674;2022-08-25T02:14:29;101059.53;;;22.47;75.24
47753;BME280;2038;51.728;6.674;2022-08-25T02:16:55;101063.69;;;22.40;75.26
47753;BME280;2038;51.728;6.674;2022-08-25T02:19:23;101061.09;;;22.40;75.30
47753;BME280;2038;51.728;6.674;2022-08-25T02:21:51;101064.63;;;22.42;75.39
47753;BME280;2038;51.728;6.674;2022-08-25T02:24:18;101060.31;;;22.44;75.51
47753;BME280;2038;51.728;6.674;2022-08-25T02:26:44;101060.44;;;22.49;75.17
47753;BME280;2038;51.728;6.674;2022-08-25T02:29:10;101065.53;;;22.44;75.62
47753;BME280;2038;51.728;6.674;2022-08-25T02:31:37;101058.56;;;22.42;75.44
47753;BME280;2038;51.728;6.674;2022-08-25T02:34:05;101063.75;;;22.43;75.32
47753;BME280;2038;51.728;6.674;2022-08-25T02:36:33;101067.34;;;22.48;75.28
47753;BME280;2038;51.728;6.674;2022-08-25T02:38:59;101072.53;;;22.48;75.30
47753;BME280;2038;51.728;6.674;2022-08-25T02:41:26;101069.06;;;22.48;75.29
47753;BME280;2038;51.728;6.674;2022-08-25T02:43:53;101069.13;;;22.49;75.34
47753;BME280;2038;51.728;6.674;2022-08-25T02:46:20;101065.69;;;22.52;75.25
47753;BME280;2038;51.728;6.674;2022-08-25T02:48:48;101064.81;;;22.51;75.10
47753;BME280;2038;51.728;6.674;2022-08-25T02:51:16;101070.88;;;22.50;75.35
47753;BME280;2038;51.728;6.674;2022-08-25T02:53:42;101064.75;;;22.47;75.31
47753;BME280;2038;51.728;6.674;2022-08-25T02:56:11;101068.19;;;22.47;75.19
47753;BME280;2038;51.728;6.674;2022-08-25T02:58:40;101063.69;;;22.40;75.17
47753;BME280;2038;51.728;6.674;2022-08-25T03:01:08;101061.94;;;22.37;75.11
47753;BME280;2038;51.728;6.674;2022-08-25T03:03:39;101066.19;;;22.35;75.21
47753;BME280;2038;51.728;6.674;2022-08-25T03:06:08;101059.38;;;22.40;75.31
47753;BME280;2038;51.728;6.674;2022-08-25T03:08:38;101061.28;;;22.48;74.82
47753;BME280;2038;51.728;6.674;2022-08-25T03:11:05;101049.00;;;22.40;75.11
47753;BME280;2038;51.728;6.674;2022-08-25T03:13:32;101049.00;;;22.40;74.74
47753;BME280;2038;51.728;6.674;2022-08-25T03:16:00;101042.59;;;22.25;75.54
47753;BME280;2038;51.728;6.674;2022-08-25T03:18:28;101039.75;;;22.14;75.87
47753;BME280;2038;51.728;6.674;2022-08-25T03:20:55;101037.13;;;22.13;75.64
47753;BME280;2038;51.728;6.674;2022-08-25T03:23:21;101037.84;;;22.07;76.02
47753;BME280;2038;51.728;6.674;2022-08-25T03:25:47;101043.91;;;22.08;76.00
47753;BME280;2038;51.728;6.674;2022-08-25T03:28:32;101032.63;;;22.06;76.05
47753;BME280;2038;51.728;6.674;2022-08-25T03:31:02;101036.94;;;22.07;75.79
47753;BME280;2038;51.728;6.674;2022-08-25T03:33:30;101024.75;;;22.03;76.15
47753;BME280;2038;51.728;6.674;2022-08-25T03:35:57;101024.63;;;21.97;76.29
47753;BME280;2038;51.728;6.674;2022-08-25T03:38:25;101020.09;;;21.91;76.64
47753;BME280;2038;51.728;6.674;2022-08-25T03:40:52;101019.16;;;21.86;76.81
47753;BME280;2038;51.728;6.674;2022-08-25T03:43:19;101025.09;;;21.82;77.05
47753;BME280;2038;51.728;6.674;2022-08-25T03:45:46;101019.88;;;21.80;76.64
47753;BME280;2038;51.728;6.674;2022-08-25T03:48:14;101022.41;;;21.79;76.63
47753;BME280;2038;51.728;6.674;2022-08-25T03:50:47;101021.44;;;21.74;77.25
47753;BME280;2038;51.728;6.674;2022-08-25T03:53:15;101019.63;;;21.70;77.05
47753;BME280;2038;51.728;6.674;2022-08-25T03:55:41;101018.78;;;21.72;76.98
47753;BME280;2038;51.728;6.674;2022-08-25T03:58:07;101016.13;;;21.69;77.47
47753;BME280;2038;51.728;6.674;2022-08-25T04:00:34;101006.53;;;21.65;77.45
47753;BME280;2038;51.728;6.674;2022-08-25T04:03:00;101009.06;;;21.64;77.37
47753;BME280;2038;51.728;6.674;2022-08-25T04:05:26;101011.72;;;21.65;77.56
47753;BME280;2038;51.728;6.674;2022-08-25T04:07:53;101009.84;;;21.60;77.76
47753;BME280;2038;51.728;6.674;2022-08-25T04:10:20;101002.16;;;21.64;77.39
47753;BME280;2038;51.728;6.674;2022-08-25T04:12:46;101000.34;;;21.60;77.68
47753;BME280;2038;51.728;6.674;2022-08-25T04:15:14;100996.91;;;21.61;77.70
47753;BME280;2038;51.728;6.674;2022-08-25T04:17:40;100998.56;;;21.59;77.86
47753;BME280;2038;51.728;6.674;2022-08-25T04:20:08;100997.69;;;21.59;77.73
47753;BME280;2038;51.728;6.674;2022-08-25T04:22:36;100995.97;;;21.58;77.88
47753;BME280;2038;51.728;6.674;2022-08-25T04:25:04;100988.06;;;21.55;77.76
47753;BME280;2038;51.728;6.674;2022-08-25T04:27:31;100983.66;;;21.51;78.00
47753;BME280;2038;51.728;6.674;2022-08-25T04:29:57;100988.00;;;21.50;77.92
47753;BME280;2038;51.728;6.674;2022-08-25T04:32:24;100981.81;;;21.46;78.39
47753;BME280;2038;51.728;6.674;2022-08-25T04:34:50;100983.56;;;21.46;78.27
47753;BME280;2038;51.728;6.674;2022-08-25T04:37:17;100981.81;;;21.46;78.25
47753;BME280;2038;51.728;6.674;2022-08-25T04:39:43;100980.09;;;21.45;78.12
47753;BME280;2038;51.728;6.674;2022-08-25T04:42:09;100980.88;;;21.43;78.15
47753;BME280;2038;51.728;6.674;2022-08-25T04:44:36;100983.47;;;21.43;78.32
47753;BME280;2038;51.728;6.674;2022-08-25T04:47:02;100986.88;;;21.40;78.32
47753;BME280;2038;51.728;6.674;2022-08-25T04:49:28;100996.44;;;21.43;78.56
47753;BME280;2038;51.728;6.674;2022-08-25T04:51:55;100990.38;;;21.42;78.34
47753;BME280;2038;51.728;6.674;2022-08-25T04:54:22;100991.31;;;21.44;78.07
47753;BME280;2038;51.728;6.674;2022-08-25T04:56:50;101002.50;;;21.43;78.13
47753;BME280;2038;51.728;6.674;2022-08-25T04:59:17;100997.38;;;21.45;78.21
47753;BME280;2038;51.728;6.674;2022-08-25T05:01:45;101000.84;;;21.45;78.50
47753;BME280;2038;51.728;6.674;2022-08-25T05:04:18;100995.72;;;21.48;78.47
47753;BME280;2038;51.728;6.674;2022-08-25T05:06:46;100995.84;;;21.53;78.11
47753;BME280;2038;51.728;6.674;2022-08-25T05:09:12;100996.72;;;21.54;78.23
47753;BME280;2038;51.728;6.674;2022-08-25T05:11:39;100999.44;;;21.60;78.15
47753;BME280;2038;51.728;6.674;2022-08-25T05:14:05;101007.28;;;21.61;78.14
47753;BME280;2038;51.728;6.674;2022-08-25T05:16:37;101004.75;;;21.64;78.26
47753;BME280;2038;51.728;6.674;2022-08-25T05:19:04;101003.16;;;21.69;77.87
47753;BME280;2038;51.728;6.674;2022-08-25T05:21:30;100998.03;;;21.72;77.79
47753;BME280;2038;51.728;6.674;2022-08-25T05:23:59;100995.50;;;21.75;77.66
47753;BME280;2038;51.728;6.674;2022-08-25T05:26:29;100993.97;;;21.83;77.72
47753;BME280;2038;51.728;6.674;2022-08-25T05:28:58;100995.91;;;21.90;77.37
47753;BME280;2038;51.728;6.674;2022-08-25T05:31:26;100990.00;;;21.96;77.24
47753;BME280;2038;51.728;6.674;2022-08-25T05:33:54;100993.56;;;22.01;77.28
47753;BME280;2038;51.728;6.674;2022-08-25T05:36:23;100997.19;;;22.08;77.18
47753;BME280;2038;51.728;6.674;2022-08-25T05:38:52;100991.31;;;22.16;77.18
47753;BME280;2038;51.728;6.674;2022-08-25T05:41:21;100998.41;;;22.23;76.74
47753;BME280;2038;51.728;6.674;2022-08-25T05:43:51;100988.06;;;22.25;76.51
47753;BME280;2038;51.728;6.674;2022-08-25T05:46:19;100982.72;;;22.19;76.43
47753;BME280;2038;51.728;6.674;2022-08-25T05:48:47;100986.34;;;22.27;76.31
47753;BME280;2038;51.728;6.674;2022-08-25T05:51:14;100987.22;;;22.26;76.89
47753;BME280;2038;51.728;6.674;2022-08-25T05:53:44;100984.78;;;22.33;76.91
47753;BME280;2038;51.728;6.674;2022-08-25T05:56:12;100983.22;;;22.42;76.57
47753;BME280;2038;51.728;6.674;2022-08-25T05:58:40;100992.00;;;22.48;76.41
47753;BME280;2038;51.728;6.674;2022-08-25T06:01:09;100998.22;;;22.55;76.29
47753;BME280;2038;51.728;6.674;2022-08-25T06:04:01;100985.31;;;22.58;76.00
47753;BME280;2038;51.728;6.674;2022-08-25T06:06:28;100993.16;;;22.61;76.02
47753;BME280;2038;51.728;6.674;2022-08-25T06:08:54;100990.59;;;22.62;76.34
47753;BME280;2038;51.728;6.674;2022-08-25T06:11:20;100989.00;;;22.69;76.01
47753;BME280;2038;51.728;6.674;2022-08-25T06:13:47;100988.31;;;22.77;76.49
47753;BME280;2038;51.728;6.674;2022-08-25T06:16:14;100989.34;;;22.85;76.04
47753;BME280;2038;51.728;6.674;2022-08-25T06:18:41;100983.47;;;22.96;76.03
47753;BME280;2038;51.728;6.674;2022-08-25T06:21:12;100981.88;;;23.04;75.60
47753;BME280;2038;51.728;6.674;2022-08-25T06:23:40;100994.25;;;23.15;75.64
47753;BME280;2038;51.728;6.674;2022-08-25T06:26:08;100989.19;;;23.23;75.43
47753;BME280;2038;51.728;6.674;2022-08-25T06:28:35;100985.84;;;23.31;75.83
47753;BME280;2038;51.728;6.674;2022-08-25T06:31:02;100995.59;;;23.42;75.19
47753;BME280;2038;51.728;6.674;2022-08-25T06:33:28;101000.16;;;23.53;74.95
47753;BME280;2038;51.728;6.674;2022-08-25T06:35:56;101008.06;;;23.59;74.57
47753;BME280;2038;51.728;6.674;2022-08-25T06:38:24;101008.25;;;23.70;74.48
47753;BME280;2038;51.728;6.674;2022-08-25T06:40:51;101004.03;;;23.79;74.56
47753;BME280;2038;51.728;6.674;2022-08-25T06:43:21;100999.91;;;23.91;74.39
47753;BME280;2038;51.728;6.674;2022-08-25T06:45:48;101009.59;;;24.01;74.07
47753;BME280;2038;51.728;6.674;2022-08-25T06:48:15;101007.13;;;24.11;73.32
47753;BME280;2038;51.728;6.674;2022-08-25T06:50:42;101012.56;;;24.22;73.30
47753;BME280;2038;51.728;6.674;2022-08-25T06:53:08;101010.13;;;24.36;73.53
47753;BME280;2038;51.728;6.674;2022-08-25T06:55:35;101016.38;;;24.47;73.02
47753;BME280;2038;51.728;6.674;2022-08-25T06:58:02;101009.59;;;24.61;72.41
47753;BME280;2038;51.728;6.674;2022-08-25T07:00:29;101003.69;;;24.76;72.55
47753;BME280;2038;51.728;6.674;2022-08-25T07:02:56;101014.22;;;24.83;71.60
47753;BME280;2038;51.728;6.674;2022-08-25T07:05:23;101004.94;;;25.03;71.63
47753;BME280;2038;51.728;6.674;2022-08-25T07:07:50;100998.91;;;25.12;71.09
47753;BME280;2038;51.728;6.674;2022-08-25T07:10:16;101004.25;;;25.24;71.41
47753;BME280;2038;51.728;6.674;2022-08-25T07:12:43;101004.38;;;25.38;70.61
47753;BME280;2038;51.728;6.674;2022-08-25T07:15:09;101007.03;;;25.44;70.01
47753;BME280;2038;51.728;6.674;2022-08-25T07:17:36;101009.66;;;25.42;70.01
47753;BME280;2038;51.728;6.674;2022-08-25T07:20:02;101014.22;;;25.63;70.33
47753;BME280;2038;51.728;6.674;2022-08-25T07:22:29;101019.50;;;25.72;70.15
47753;BME280;2038;51.728;6.674;2022-08-25T07:24:55;101017.88;;;25.86;69.57
47753;BME280;2038;51.728;6.674;2022-08-25T07:27:21;101017.97;;;25.98;69.48
47753;BME280;2038;51.728;6.674;2022-08-25T07:29:47;101011.22;;;26.23;68.82
47753;BME280;2038;51.728;6.674;2022-08-25T07:32:15;101006.00;;;26.29;68.66
47753;BME280;2038;51.728;6.674;2022-08-25T07:34:41;101000.84;;;26.41;68.50
47753;BME280;2038;51.728;6.674;2022-08-25T07:37:25;100998.28;;;26.57;67.97
47753;BME280;2038;51.728;6.674;2022-08-25T07:39:52;101001.81;;;26.63;67.79
47753;BME280;2038;51.728;6.674;2022-08-25T07:42:18;100999.19;;;26.65;67.07
47753;BME280;2038;51.728;6.674;2022-08-25T07:44:44;100995.75;;;26.81;67.03
47753;BME280;2038;51.728;6.674;2022-08-25T07:47:10;100994.09;;;26.90;66.82
47753;BME280;2038;51.728;6.674;2022-08-25T07:49:37;100991.50;;;26.92;66.57
47753;BME280;2038;51.728;6.674;2022-08-25T07:52:03;100985.41;;;27.10;66.49
47753;BME280;2038;51.728;6.674;2022-08-25T07:54:30;100988.06;;;27.16;66.18
47753;BME280;2038;51.728;6.674;2022-08-25T07:56:56;100989.78;;;27.29;65.89
47753;BME280;2038;51.728;6.674;2022-08-25T07:59:23;100976.72;;;27.41;66.29
47753;BME280;2038;51.728;6.674;2022-08-25T08:01:49;100985.47;;;27.57;65.89
47753;BME280;2038;51.728;6.674;2022-08-25T08:04:15;100986.34;;;27.66;65.36
47753;BME280;2038;51.728;6.674;2022-08-25T08:06:41;100990.69;;;27.81;65.37
47753;BME280;2038;51.728;6.674;2022-08-25T08:09:08;100997.66;;;27.99;65.15
47753;BME280;2038;51.728;6.674;2022-08-25T08:11:35;100990.66;;;28.13;64.48
47753;BME280;2038;51.728;6.674;2022-08-25T08:14:06;100991.53;;;28.27;63.73
47753;BME280;2038;51.728;6.674;2022-08-25T08:16:33;100989.75;;;28.35;64.08
47753;BME280;2038;51.728;6.674;2022-08-25T08:19:00;100989.72;;;28.40;62.93
47753;BME280;2038;51.728;6.674;2022-08-25T08:21:33;100992.34;;;28.41;62.88
47753;BME280;2038;51.728;6.674;2022-08-25T08:24:02;100989.72;;;28.44;62.53
47753;BME280;2038;51.728;6.674;2022-08-25T08:26:28;100981.84;;;28.47;62.57
47753;BME280;2038;51.728;6.674;2022-08-25T08:28:55;100980.06;;;28.55;61.91
47753;BME280;2038;51.728;6.674;2022-08-25T08:31:23;100980.09;;;28.46;62.28
47753;BME280;2038;51.728;6.674;2022-08-25T08:33:53;100977.41;;;28.57;62.11
47753;BME280;2038;51.728;6.674;2022-08-25T08:36:21;100974.75;;;28.66;62.18
47753;BME280;2038;51.728;6.674;2022-08-25T08:38:48;100967.78;;;28.72;61.53
47753;BME280;2038;51.728;6.674;2022-08-25T08:44:21;100962.34;;;29.00;60.57
47753;BME280;2038;51.728;6.674;2022-08-25T08:55:43;100957.59;;;29.50;60.20
47753;BME280;2038;51.728;6.674;2022-08-25T08:58:21;100955.81;;;29.55;60.01
47753;BME280;2038;51.728;6.674;2022-08-25T09:00:55;100954.03;;;29.59;59.86
47753;BME280;2038;51.728;6.674;2022-08-25T09:03:34;100951.41;;;29.60;59.18
47753;BME280;2038;51.728;6.674;2022-08-25T09:06:13;100952.16;;;29.71;59.05
47753;BME280;2038;51.728;6.674;2022-08-25T09:08:45;100949.47;;;29.79;59.51
47753;BME280;2038;51.728;6.674;2022-08-25T09:14:34;100938.81;;;29.94;59.35
47753;BME280;2038;51.728;6.674;2022-08-25T09:17:52;100931.66;;;30.05;58.15
47753;BME280;2038;51.728;6.674;2022-08-25T09:20:30;100934.97;;;30.23;57.32
47753;BME280;2038;51.728;6.674;2022-08-25T09:29:13;100935.66;;;30.38;57.38
47753;BME280;2038;51.728;6.674;2022-08-25T09:31:47;100929.38;;;30.51;56.71
47753;BME280;2038;51.728;6.674;2022-08-25T09:34:23;100929.28;;;30.57;56.49
47753;BME280;2038;51.728;6.674;2022-08-25T09:36:58;100927.34;;;30.70;56.50
47753;BME280;2038;51.728;6.674;2022-08-25T09:39:25;100923.78;;;30.74;56.42
47753;BME280;2038;51.728;6.674;2022-08-25T09:41:54;100915.78;;;30.83;56.11
47753;BME280;2038;51.728;6.674;2022-08-25T09:44:39;100915.75;;;30.85;55.89
47753;BME280;2038;51.728;6.674;2022-08-25T09:47:26;100911.31;;;30.88;55.99
47753;BME280;2038;51.728;6.674;2022-08-25T09:50:00;100902.59;;;30.83;55.47
47753;BME280;2038;51.728;6.674;2022-08-25T09:52:33;100907.69;;;30.95;55.18
47753;BME280;2038;51.728;6.674;2022-08-25T09:57:48;100899.03;;;30.89;54.85
47753;BME280;2038;51.728;6.674;2022-08-25T10:03:14;100896.88;;;31.13;55.26
47753;BME280;2038;51.728;6.674;2022-08-25T10:08:38;100896.84;;;31.17;53.94
47753;BME280;2038;51.728;6.674;2022-08-25T10:16:47;100894.16;;;31.18;52.86
47753;BME280;2038;51.728;6.674;2022-08-25T10:19:27;100894.75;;;31.35;53.12
47753;BME280;2038;51.728;6.674;2022-08-25T10:22:24;100893.81;;;31.39;53.25
47753;BME280;2038;51.728;6.674;2022-08-25T10:24:58;100891.16;;;31.41;53.29
47753;BME280;2038;51.728;6.674;2022-08-25T10:36:06;100878.25;;;31.75;51.50
47753;BME280;2038;51.728;6.674;2022-08-25T10:38:43;100877.19;;;31.83;50.23
47753;BME280;2038;51.728;6.674;2022-08-25T10:48:29;100863.94;;;31.86;50.18
47753;BME280;2038;51.728;6.674;2022-08-25T10:51:01;100864.56;;;31.99;49.17
47753;BME280;2038;51.728;6.674;2022-08-25T10:53:54;100851.28;;;32.03;50.48
47753;BME280;2038;51.728;6.674;2022-08-25T10:56:37;100847.72;;;32.06;50.51
47753;BME280;2038;51.728;6.674;2022-08-25T10:59:26;100844.38;;;31.98;51.23
47753;BME280;2038;51.728;6.674;2022-08-25T11:05:23;100846.09;;;31.99;47.61
47753;BME280;2038;51.728;6.674;2022-08-25T11:08:22;100840.91;;;31.96;47.53
47753;BME280;2038;51.728;6.674;2022-08-25T11:11:03;100833.88;;;31.96;49.67
47753;BME280;2038;51.728;6.674;2022-08-25T11:16:24;100836.34;;;32.02;48.81
47753;BME280;2038;51.728;6.674;2022-08-25T11:19:39;100832.75;;;32.08;48.40
47753;BME280;2038;51.728;6.674;2022-08-25T11:22:36;100833.31;;;31.81;47.26
47753;BME280;2038;51.728;6.674;2022-08-25T11:25:18;100824.22;;;31.95;46.20
47753;BME280;2038;51.728;6.674;2022-08-25T11:28:20;100826.75;;;32.00;46.06
47753;BME280;2038;51.728;6.674;2022-08-25T11:30:52;100832.84;;;32.02;46.60
47753;BME280;2038;51.728;6.674;2022-08-25T11:33:24;100839.78;;;32.09;46.15
47753;BME280;2038;51.728;6.674;2022-08-25T11:36:13;100828.31;;;32.10;46.32
47753;BME280;2038;51.728;6.674;2022-08-25T11:42:33;100817.75;;;32.12;44.45
47753;BME280;2038;51.728;6.674;2022-08-25T11:48:52;100810.59;;;32.17;46.43
47753;BME280;2038;51.728;6.674;2022-08-25T11:51:31;100813.75;;;32.32;47.28
47753;BME280;2038;51.728;6.674;2022-08-25T11:57:18;100814.09;;;32.54;46.18
47753;BME280;2038;51.728;6.674;2022-08-25T12:02:46;100809.69;;;32.55;45.84
47753;BME280;2038;51.728;6.674;2022-08-25T12:21:52;100781.06;;;32.75;45.95
47753;BME280;2038;51.728;6.674;2022-08-25T12:24:48;100786.31;;;32.76;44.77
47753;BME280;2038;51.728;6.674;2022-08-25T12:30:49;100771.59;;;32.66;44.57
47753;BME280;2038;51.728;6.674;2022-08-25T12:36:55;100776.44;;;32.84;44.87
47753;BME280;2038;51.728;6.674;2022-08-25T12:39:30;100772.84;;;32.87;44.79
47753;BME280;2038;51.728;6.674;2022-08-25T12:42:06;100769.00;;;32.99;44.12
47753;BME280;2038;51.728;6.674;2022-08-25T12:47:46;100767.97;;;33.06;43.48
47753;BME280;2038;51.728;6.674;2022-08-25T12:50:40;100761.69;;;33.10;43.45
47753;BME280;2038;51.728;6.674;2022-08-25T12:59:16;100762.06;;;32.94;43.71
47753;BME280;2038;51.728;6.674;2022-08-25T13:11:28;100751.75;;;33.19;43.59
47753;BME280;2038;51.728;6.674;2022-08-25T13:14:21;100743.72;;;33.24;43.70
47753;BME280;2038;51.728;6.674;2022-08-25T13:16:57;100737.75;;;33.16;44.09
47753;BME280;2038;51.728;6.674;2022-08-25T13:19:26;100736.97;;;33.14;43.82
47753;BME280;2038;51.728;6.674;2022-08-25T13:21:55;100744.78;;;33.17;43.55
47753;BME280;2038;51.728;6.674;2022-08-25T13:24:35;100733.53;;;33.09;43.66
47753;BME280;2038;51.728;6.674;2022-08-25T13:27:08;100729.16;;;33.08;44.47
47753;BME280;2038;51.728;6.674;2022-08-25T13:29:56;100721.19;;;33.09;44.16
47753;BME280;2038;51.728;6.674;2022-08-25T13:32:32;100727.97;;;33.19;43.68
47753;BME280;2038;51.728;6.674;2022-08-25T13:35:13;100726.25;;;33.18;43.07
47753;BME280;2038;51.728;6.674;2022-08-25T13:37:40;100721.47;;;33.31;43.76
47753;BME280;2038;51.728;6.674;2022-08-25T13:40:21;100717.97;;;33.30;42.98
47753;BME280;2038;51.728;6.674;2022-08-25T13:42:58;100716.91;;;33.37;42.83
47753;BME280;2038;51.728;6.674;2022-08-25T13:45:28;100710.63;;;33.42;42.69
47753;BME280;2038;51.728;6.674;2022-08-25T13:47:56;100708.84;;;33.42;42.95
47753;BME280;2038;51.728;6.674;2022-08-25T13:53:20;100703.22;;;33.53;42.80
47753;BME280;2038;51.728;6.674;2022-08-25T13:55:54;100710.66;;;33.40;43.76
47753;BME280;2038;51.728;6.674;2022-08-25T14:01:11;100707.00;;;33.44;43.70
47753;BME280;2038;51.728;6.674;2022-08-25T14:03:41;100702.06;;;33.32;43.99
47753;BME280;2038;51.728;6.674;2022-08-25T14:17:05;100696.41;;;33.46;43.66
47753;BME280;2038;51.728;6.674;2022-08-25T14:19:34;100696.06;;;33.56;43.76
47753;BME280;2038;51.728;6.674;2022-08-25T14:22:11;100691.44;;;33.64;43.25
47753;BME280;2038;51.728;6.674;2022-08-25T14:24:38;100685.13;;;33.70;44.00
47753;BME280;2038;51.728;6.674;2022-08-25T14:27:05;100670.06;;;33.72;43.89
47753;BME280;2038;51.728;6.674;2022-08-25T14:29:31;100657.50;;;33.78;44.53
47753;BME280;2038;51.728;6.674;2022-08-25T14:31:58;100682.16;;;33.79;44.09
47753;BME280;2038;51.728;6.674;2022-08-25T14:34:28;100679.78;;;33.71;44.45
47753;BME280;2038;51.728;6.674;2022-08-25T14:36:58;100681.53;;;33.71;44.57
47753;BME280;2038;51.728;6.674;2022-08-25T14:39:25;100672.59;;;33.75;45.37
47753;BME280;2038;51.728;6.674;2022-08-25T14:41:51;100672.94;;;33.92;45.07
47753;BME280;2038;51.728;6.674;2022-08-25T14:44:19;100670.03;;;34.01;44.67
47753;BME280;2038;51.728;6.674;2022-08-25T14:46:50;100673.38;;;34.06;44.96
47753;BME280;2038;51.728;6.674;2022-08-25T14:49:25;100674.34;;;34.04;44.42
47753;BME280;2038;51.728;6.674;2022-08-25T14:52:20;100671.19;;;33.93;45.17
47753;BME280;2038;51.728;6.674;2022-08-25T14:54:52;100668.81;;;33.83;45.12
47753;BME280;2038;51.728;6.674;2022-08-25T14:57:19;100663.53;;;33.83;45.23
47753;BME280;2038;51.728;6.674;2022-08-25T14:59:45;100663.63;;;33.80;45.14
47753;BME280;2038;51.728;6.674;2022-08-25T15:02:14;100664.38;;;33.84;45.63
47753;BME280;2038;51.728;6.674;2022-08-25T15:04:50;100663.75;;;33.76;45.31
47753;BME280;2038;51.728;6.674;2022-08-25T15:07:31;100652.78;;;33.60;45.99
47753;BME280;2038;51.728;6.674;2022-08-25T15:10:17;100654.59;;;33.58;46.03
47753;BME280;2038;51.728;6.674;2022-08-25T15:12:43;100651.88;;;33.61;45.33
47753;BME280;2038;51.728;6.674;2022-08-25T15:15:10;100651.69;;;33.67;45.53
47753;BME280;2038;51.728;6.674;2022-08-25T15:17:38;100650.66;;;33.73;45.26
47753;BME280;2038;51.728;6.674;2022-08-25T15:20:07;100646.09;;;33.78;45.53
47753;BME280;2038;51.728;6.674;2022-08-25T15:22:33;100642.38;;;33.83;45.45
47753;BME280;2038;51.728;6.674;2022-08-25T15:25:00;100650.13;;;33.90;44.95
47753;BME280;2038;51.728;6.674;2022-08-25T15:27:26;100644.88;;;33.88;44.73
47753;BME280;2038;51.728;6.674;2022-08-25T15:29:53;100643.28;;;33.82;44.89
47753;BME280;2038;51.728;6.674;2022-08-25T15:32:19;100644.84;;;33.90;45.38
47753;BME280;2038;51.728;6.674;2022-08-25T15:34:45;100638.78;;;33.86;45.39